Time;durP1;ratioP1;P1;durP2;ratioP2;P2;SDS_P1;SDS_P2;PMS_P1;PMS_P2;Temp;Humidity;BMP_temperature;BMP_pressure;BME280_temperature;BME280_humidity;BME280_pressure;Samples;Min_cycle;Max_cycle;Signal;HPM_P1;HPM_P2
2023/01/06 00:01:06;;;;;;;1.50;1.40;;;;;;;11.70;84.98;96272.88;5085809;28;20596;-84
2023/01/06 00:03:32;;;;;;;1.30;1.20;;;;;;;11.71;84.92;96278.84;5085250;28;20223;-84
2023/01/06 00:06:00;;;;;;;1.63;1.30;;;;;;;11.66;84.78;96270.78;5088758;28;20226;-84
2023/01/06 00:08:27;;;;;;;1.60;1.50;;;;;;;11.69;84.87;96270.44;5083697;28;20204;-84
2023/01/06 00:10:53;;;;;;;1.43;1.30;;;;;;;11.71;84.56;96263.34;5095242;28;20246;-84
2023/01/06 00:13:20;;;;;;;1.37;1.27;;;;;;;11.73;84.81;96264.00;5098397;28;20219;-84
2023/01/06 00:15:48;;;;;;;1.20;1.10;;;;;;;11.72;84.88;96263.19;5083957;28;20200;-84
2023/01/06 00:18:15;;;;;;;1.77;1.30;;;;;;;11.72;84.76;96259.81;5097164;28;20196;-85
2023/01/06 00:20:41;;;;;;;1.47;1.37;;;;;;;11.67;85.22;96255.13;5084369;28;20197;-84
2023/01/06 00:23:07;;;;;;;2.47;1.63;;;;;;;11.64;85.00;96250.31;5076729;28;20217;-84
2023/01/06 00:25:36;;;;;;;1.57;1.43;;;;;;;11.66;85.06;96247.56;5077060;28;20215;-84
2023/01/06 00:28:04;;;;;;;2.90;1.50;;;;;;;11.66;85.36;96239.81;5093728;28;20207;-84
2023/01/06 00:30:31;;;;;;;1.43;1.33;;;;;;;11.60;85.46;96237.91;5083768;28;20219;-84
2023/01/06 00:32:59;;;;;;;1.30;1.20;;;;;;;11.55;85.47;96233.22;5076521;28;20217;-84
2023/01/06 00:35:25;;;;;;;1.40;1.30;;;;;;;11.56;85.26;96231.47;5088466;28;20200;-84
2023/01/06 00:37:52;;;;;;;1.53;1.20;;;;;;;11.54;85.45;96234.22;5095734;28;20203;-84
2023/01/06 00:40:18;;;;;;;1.30;1.20;;;;;;;11.59;85.53;96226.78;5085352;28;20193;-84
2023/01/06 00:42:47;;;;;;;1.30;1.20;;;;;;;11.60;85.05;96230.97;5077046;28;20601;-84
2023/01/06 00:45:14;;;;;;;1.47;1.37;;;;;;;11.61;85.01;96245.47;5085409;28;20192;-84
2023/01/06 00:47:40;;;;;;;1.37;1.27;;;;;;;11.61;85.02;96239.50;5081741;28;20208;-84
2023/01/06 00:50:09;;;;;;;1.40;1.20;;;;;;;11.60;85.50;96240.47;5076313;28;20196;-84
2023/01/06 00:52:35;;;;;;;1.53;1.40;;;;;;;11.61;84.99;96234.34;5085678;28;20220;-84
2023/01/06 00:55:02;;;;;;;1.73;1.50;;;;;;;11.60;85.16;96238.69;5093484;28;20273;-84
2023/01/06 00:57:28;;;;;;;1.50;1.40;;;;;;;11.61;85.19;96229.19;5079591;28;20208;-84
2023/01/06 00:59:55;;;;;;;1.40;1.30;;;;;;;11.60;85.16;96225.81;5083878;28;20192;-84
2023/01/06 01:02:21;;;;;;;1.37;1.20;;;;;;;11.58;85.07;96230.31;5085228;28;20289;-84
2023/01/06 01:04:48;;;;;;;1.90;1.30;;;;;;;11.58;85.18;96225.16;5082163;28;20193;-84
2023/01/06 01:07:15;;;;;;;1.93;1.60;;;;;;;11.57;84.99;96217.59;5099803;28;20213;-84
2023/01/06 01:09:42;;;;;;;1.90;1.70;;;;;;;11.56;84.90;96221.16;5098137;28;20199;-84
2023/01/06 01:12:10;;;;;;;1.67;1.30;;;;;;;11.57;84.71;96220.19;5079539;28;20247;-84
2023/01/06 01:14:38;;;;;;;1.50;1.40;;;;;;;11.55;84.81;96219.53;5079669;28;20212;-84
2023/01/06 01:17:05;;;;;;;1.30;1.20;;;;;;;11.50;85.16;96214.91;5068250;28;20737;-84
2023/01/06 01:19:32;;;;;;;2.03;1.30;;;;;;;11.51;85.01;96215.69;5079360;28;20197;-84
2023/01/06 01:21:58;;;;;;;1.40;1.30;;;;;;;11.48;85.24;96209.09;5098020;28;20216;-84
2023/01/06 01:24:26;;;;;;;1.30;1.20;;;;;;;11.40;85.29;96203.97;5099327;28;20255;-84
2023/01/06 01:26:53;;;;;;;1.67;1.20;;;;;;;11.39;85.25;96205.72;5085440;28;20196;-84
2023/01/06 01:29:19;;;;;;;1.60;1.50;;;;;;;11.38;85.13;96211.06;5078666;28;20212;-84
2023/01/06 01:31:46;;;;;;;1.47;1.37;;;;;;;11.34;85.07;96214.94;5096263;28;20591;-84
2023/01/06 01:34:15;;;;;;;1.97;1.70;;;;;;;11.29;85.49;96210.28;5099245;28;20207;-84
2023/01/06 01:36:42;;;;;;;1.53;1.43;;;;;;;11.20;85.58;96206.09;5083279;28;20558;-84
2023/01/06 01:39:09;;;;;;;1.50;1.40;;;;;;;11.19;85.39;96209.66;5077311;28;20204;-84
2023/01/06 01:41:37;;;;;;;1.80;1.57;;;;;;;11.19;85.72;96214.00;5093311;28;20216;-84
2023/01/06 01:44:42;;;;;;;1.40;1.30;;;;;;;11.14;86.05;96196.47;5081763;28;20564;-84
2023/01/06 01:47:10;;;;;;;1.60;1.50;;;;;;;11.17;85.61;96205.63;5070668;28;20246;-83
2023/01/06 01:49:40;;;;;;;1.50;1.40;;;;;;;11.17;85.59;96197.88;5084388;28;20200;-84
2023/01/06 01:52:09;;;;;;;1.50;1.33;;;;;;;11.19;85.32;96204.50;5081871;28;20227;-84
2023/01/06 01:54:38;;;;;;;1.37;1.27;;;;;;;11.15;85.56;96207.59;5083642;28;20273;-84
2023/01/06 01:57:12;;;;;;;1.20;1.10;;;;;;;11.13;85.60;96201.78;5096031;28;20423;-84
2023/01/06 01:59:41;;;;;;;1.20;1.10;;;;;;;11.04;85.92;96204.38;5096890;28;20196;-84
2023/01/06 02:02:08;;;;;;;1.33;1.10;;;;;;;11.02;86.23;96206.31;5090099;28;20243;-84
2023/01/06 02:04:38;;;;;;;1.20;1.10;;;;;;;11.02;85.82;96201.16;5077391;28;20221;-84
2023/01/06 02:07:06;;;;;;;1.20;1.10;;;;;;;11.04;86.06;96206.13;5085654;28;20200;-84
2023/01/06 02:09:35;;;;;;;1.00;1.00;;;;;;;11.04;85.34;96198.41;5096037;28;20196;-84
2023/01/06 02:12:02;;;;;;;1.30;1.20;;;;;;;11.05;85.19;96200.03;5090636;28;20224;-84
2023/01/06 02:14:30;;;;;;;1.83;1.30;;;;;;;11.02;85.21;96187.47;5077553;28;20197;-84
2023/01/06 02:17:11;;;;;;;1.40;1.10;;;;;;;11.01;85.11;96188.44;5083302;28;20203;-84
2023/01/06 02:20:09;;;;;;;1.30;1.20;;;;;;;10.88;85.05;96181.22;5096968;28;20211;-84
2023/01/06 02:22:55;;;;;;;1.37;1.27;;;;;;;10.88;85.11;96182.97;5050754;28;20221;-84
2023/01/06 02:25:50;;;;;;;1.20;1.10;;;;;;;10.88;84.91;96175.25;5076855;28;20192;-84
2023/01/06 02:28:40;;;;;;;1.40;1.17;;;;;;;10.82;85.06;96176.72;5091594;28;20245;-84
2023/01/06 02:31:52;;;;;;;1.60;1.30;;;;;;;10.81;85.01;96171.72;5097583;28;20220;-84
2023/01/06 02:34:31;;;;;;;1.30;1.20;;;;;;;10.75;85.11;96172.38;5056832;28;20735;-84
2023/01/06 02:37:04;;;;;;;1.47;1.37;;;;;;;10.73;84.61;96169.97;5064482;28;20227;-84
2023/01/06 02:39:40;;;;;;;1.53;1.30;;;;;;;10.74;84.93;96169.00;5084975;28;20330;-84
2023/01/06 02:42:17;;;;;;;1.23;1.13;;;;;;;10.72;84.13;96161.44;5076351;28;20221;-84
2023/01/06 02:44:55;;;;;;;1.30;1.20;;;;;;;10.68;83.99;96172.22;5076696;28;20213;-84
2023/01/06 02:47:33;;;;;;;1.60;1.50;;;;;;;10.66;84.28;96162.06;5075513;28;20234;-84
2023/01/06 02:50:10;;;;;;;1.27;1.17;;;;;;;10.59;83.80;96158.53;5084796;28;20200;-84
2023/01/06 02:52:43;;;;;;;1.57;1.47;;;;;;;10.56;84.52;96160.66;5071269;28;20231;-84
2023/01/06 02:55:15;;;;;;;2.43;1.30;;;;;;;10.56;84.38;96158.09;5084690;28;20571;-84
2023/01/06 02:57:48;;;;;;;1.30;1.20;;;;;;;10.54;84.33;96154.84;5095891;28;20192;-84
2023/01/06 03:00:19;;;;;;;1.20;1.10;;;;;;;10.55;84.07;96154.69;5086405;28;20201;-84
2023/01/06 03:02:53;;;;;;;1.20;1.10;;;;;;;10.54;83.88;96150.50;5091777;28;20208;-84
2023/01/06 03:05:21;;;;;;;1.40;1.30;;;;;;;10.53;84.00;96154.06;5085887;28;20219;-84
2023/01/06 03:07:49;;;;;;;2.17;1.43;;;;;;;10.47;83.98;96144.41;5075413;28;20259;-84
2023/01/06 03:10:19;;;;;;;1.37;1.27;;;;;;;10.38;84.13;96142.81;5084311;28;20206;-84
2023/01/06 03:12:55;;;;;;;1.00;1.00;;;;;;;10.40;84.44;96143.41;5094731;28;20216;-84
2023/01/06 03:15:23;;;;;;;1.47;1.23;;;;;;;10.41;84.63;96141.66;5085424;28;20193;-84
2023/01/06 03:17:52;;;;;;;1.30;1.20;;;;;;;10.39;84.32;96141.84;5075444;28;20192;-84
2023/01/06 03:20:19;;;;;;;1.23;1.13;;;;;;;10.38;84.26;96143.59;5082251;28;20204;-84
2023/01/06 03:22:46;;;;;;;1.23;1.10;;;;;;;10.39;83.75;96140.03;5095752;28;20226;-84
2023/01/06 03:25:13;;;;;;;1.20;1.10;;;;;;;10.42;83.66;96141.50;5088295;28;20225;-85
2023/01/06 03:27:40;;;;;;;1.17;1.07;;;;;;;10.39;83.20;96139.25;5074679;28;20197;-84
2023/01/06 03:30:10;;;;;;;1.43;1.20;;;;;;;10.41;83.57;96137.31;5074544;28;20200;-84
2023/01/06 03:32:47;;;;;;;1.23;1.13;;;;;;;10.40;82.90;96133.13;5074610;28;20321;-84
2023/01/06 03:35:30;;;;;;;1.33;1.10;;;;;;;10.34;82.91;96138.94;5071161;28;20204;-84
2023/01/06 03:38:04;;;;;;;1.80;1.10;;;;;;;10.32;82.81;96143.44;5071627;28;20219;-84
2023/01/06 03:40:35;;;;;;;1.40;1.07;;;;;;;10.30;83.02;96140.22;5081405;28;20192;-84
2023/01/06 03:43:15;;;;;;;1.13;1.03;;;;;;;10.26;83.05;96139.72;5094552;28;20594;-84
2023/01/06 03:45:55;;;;;;;1.47;1.20;;;;;;;10.25;82.71;96145.03;5093124;28;20284;-84
2023/01/06 03:48:35;;;;;;;1.70;1.60;;;;;;;10.23;82.50;96139.25;5059346;28;20293;-84
2023/01/06 03:51:09;;;;;;;1.30;1.20;;;;;;;10.22;82.69;96147.91;5081320;28;20233;-84
2023/01/06 03:53:40;;;;;;;1.30;1.20;;;;;;;10.20;82.46;96149.88;5078920;28;20212;-84
2023/01/06 03:56:16;;;;;;;2.10;1.20;;;;;;;10.14;82.64;96148.72;5093694;28;20601;-84
2023/01/06 03:58:46;;;;;;;1.40;1.30;;;;;;;10.04;82.27;96151.41;5088950;28;20192;-84
2023/01/06 04:01:14;;;;;;;1.27;1.17;;;;;;;10.07;82.53;96158.00;5073197;28;20253;-84
2023/01/06 04:03:44;;;;;;;1.00;1.00;;;;;;;10.06;82.20;96151.25;5078434;28;20265;-84
2023/01/06 04:06:12;;;;;;;0.97;0.90;;;;;;;10.10;82.27;96152.56;5094242;28;20713;-84
2023/01/06 04:08:38;;;;;;;1.03;0.93;;;;;;;10.08;81.39;96141.63;5091063;28;20197;-84
2023/01/06 04:11:05;;;;;;;1.20;1.10;;;;;;;10.03;81.49;96139.50;5074774;28;20221;-84
2023/01/06 04:13:30;;;;;;;0.90;0.90;;;;;;;10.05;81.48;96137.59;5075885;28;20204;-84
2023/01/06 04:15:57;;;;;;;1.33;1.00;;;;;;;10.07;81.08;96141.78;5095268;28;20199;-84
2023/01/06 04:18:25;;;;;;;0.83;0.83;;;;;;;10.05;81.07;96140.16;5094225;28;20207;-84
2023/01/06 04:20:51;;;;;;;1.20;1.10;;;;;;;10.07;80.67;96141.78;5054648;28;20209;-84
2023/01/06 04:23:19;;;;;;;1.70;0.93;;;;;;;10.08;80.33;96143.38;5054472;28;20227;-84
2023/01/06 04:25:46;;;;;;;0.80;0.80;;;;;;;10.07;80.45;96152.88;5091253;28;20684;-84
2023/01/06 04:28:12;;;;;;;0.80;0.80;;;;;;;10.07;80.38;96144.34;5092364;28;20566;-84
2023/01/06 04:30:38;;;;;;;0.80;0.80;;;;;;;10.02;80.28;96155.09;5098722;28;20407;-84
2023/01/06 04:33:05;;;;;;;1.10;1.00;;;;;;;9.96;80.54;96163.47;5080243;28;20225;-84
2023/01/06 04:35:31;;;;;;;0.90;0.90;;;;;;;9.95;80.61;96156.72;5078415;28;20214;-84
2023/01/06 04:38:01;;;;;;;0.80;0.80;;;;;;;9.95;80.53;96157.53;5077428;28;20196;-84
2023/01/06 04:40:29;;;;;;;1.00;0.90;;;;;;;9.95;80.48;96154.97;5084153;28;20619;-84
2023/01/06 04:43:04;;;;;;;1.10;0.90;;;;;;;9.92;80.12;96160.41;5088819;28;20217;-84
2023/01/06 04:45:30;;;;;;;0.87;0.87;;;;;;;9.89;80.38;96160.72;5085346;28;20215;-84
2023/01/06 04:47:57;;;;;;;1.90;0.90;;;;;;;9.89;80.29;96165.06;5078071;28;20293;-84
2023/01/06 04:50:23;;;;;;;0.93;0.93;;;;;;;9.90;79.91;96162.34;5081758;28;20230;-84
2023/01/06 04:52:49;;;;;;;1.17;1.07;;;;;;;9.88;79.82;96158.31;5077165;28;20236;-84
2023/01/06 04:55:16;;;;;;;0.80;0.80;;;;;;;9.84;79.79;96151.84;5083632;28;20200;-84
2023/01/06 04:57:44;;;;;;;0.90;0.90;;;;;;;9.80;79.74;96156.53;5097702;28;20269;-84
2023/01/06 05:00:11;;;;;;;0.90;0.90;;;;;;;9.78;80.24;96155.88;5092512;28;20195;-84
2023/01/06 05:02:38;;;;;;;1.10;1.00;;;;;;;9.70;79.59;96148.16;5077408;28;20221;-84
2023/01/06 05:05:05;;;;;;;0.80;0.80;;;;;;;9.59;80.49;96141.53;5081194;28;20613;-84
2023/01/06 05:07:31;;;;;;;0.90;0.90;;;;;;;9.54;80.39;96142.97;5097010;28;20261;-84
2023/01/06 05:09:58;;;;;;;1.20;1.10;;;;;;;9.57;80.37;96140.09;5079555;28;20196;-84
2023/01/06 05:12:24;;;;;;;1.10;1.00;;;;;;;9.55;80.11;96142.81;5073871;28;20212;-84
2023/01/06 05:14:52;;;;;;;1.10;0.97;;;;;;;9.57;80.08;96151.16;5078604;28;20406;-84
2023/01/06 05:17:18;;;;;;;1.17;1.07;;;;;;;9.55;79.81;96147.16;5091657;28;20715;-84
2023/01/06 05:19:45;;;;;;;0.97;0.97;;;;;;;9.54;79.74;96148.91;5095857;28;20475;-84
2023/01/06 05:22:12;;;;;;;0.80;0.80;;;;;;;9.56;79.81;96156.47;5077090;28;20224;-84
2023/01/06 05:24:38;;;;;;;0.70;0.70;;;;;;;9.55;79.48;96149.72;5077683;28;20219;-84
2023/01/06 05:27:05;;;;;;;1.00;0.90;;;;;;;9.54;79.65;96155.81;5070502;28;20652;-84
2023/01/06 05:29:31;;;;;;;0.87;0.80;;;;;;;9.53;79.34;96157.56;5083931;28;20197;-84
2023/01/06 05:31:59;;;;;;;0.90;0.90;;;;;;;9.52;79.66;96155.97;5080253;28;20213;-84
2023/01/06 05:34:26;;;;;;;1.07;1.00;;;;;;;9.53;79.45;96152.44;5086342;28;20200;-84
2023/01/06 05:36:52;;;;;;;0.90;0.90;;;;;;;9.50;79.47;96150.16;5075946;28;20207;-85
2023/01/06 05:39:19;;;;;;;0.90;0.90;;;;;;;9.50;79.53;96142.47;5074913;28;20266;-85
2023/01/06 05:41:45;;;;;;;1.00;0.90;;;;;;;9.55;79.34;96149.72;5071904;28;20223;-85
2023/01/06 05:44:12;;;;;;;1.37;1.00;;;;;;;9.53;79.29;96143.91;5075991;28;20221;-85
2023/01/06 05:46:38;;;;;;;1.07;1.00;;;;;;;9.54;79.29;96148.91;5076201;28;20192;-85
2023/01/06 05:49:06;;;;;;;0.93;0.90;;;;;;;9.53;79.33;96147.28;5081448;28;20238;-85
2023/01/06 05:51:33;;;;;;;0.90;0.90;;;;;;;9.45;79.25;96143.88;5082770;28;20223;-85
2023/01/06 05:53:59;;;;;;;1.17;1.00;;;;;;;9.44;79.26;96148.22;5072284;28;20205;-85
2023/01/06 05:56:25;;;;;;;1.00;1.00;;;;;;;9.40;78.95;96146.94;5074546;28;20193;-85
2023/01/06 05:58:53;;;;;;;0.90;0.90;;;;;;;9.40;78.94;96139.22;5074594;28;20208;-85
2023/01/06 06:01:21;;;;;;;1.40;0.90;;;;;;;9.38;78.30;96141.16;5076573;28;20460;-85
2023/01/06 06:03:47;;;;;;;1.17;0.90;;;;;;;9.38;78.66;96143.72;5084358;28;20200;-85
2023/01/06 06:06:16;;;;;;;1.40;1.10;;;;;;;9.37;78.76;96136.97;5087654;28;20201;-86
2023/01/06 06:08:42;;;;;;;0.97;0.97;;;;;;;9.40;78.69;96146.94;5073351;28;20200;-85
2023/01/06 06:11:11;;;;;;;0.93;0.93;;;;;;;9.47;78.30;96154.81;5070817;28;20221;-85
2023/01/06 06:13:38;;;;;;;1.23;1.00;;;;;;;9.41;77.58;96148.56;5069488;28;20189;-85
2023/01/06 06:16:06;;;;;;;0.90;0.90;;;;;;;9.38;77.75;96155.75;5075873;28;20203;-85
2023/01/06 06:18:35;;;;;;;2.17;1.00;;;;;;;9.40;77.48;96159.78;5072795;28;20189;-85
2023/01/06 06:21:02;;;;;;;1.10;1.00;;;;;;;9.39;77.26;96160.75;5078664;28;20716;-85
2023/01/06 06:23:30;;;;;;;1.10;0.90;;;;;;;9.42;77.50;96164.78;5090931;28;20220;-84
2023/01/06 06:25:58;;;;;;;1.73;1.10;;;;;;;9.41;77.46;96153.69;5076574;28;20235;-84
2023/01/06 06:28:25;;;;;;;0.93;0.87;;;;;;;9.40;76.99;96156.41;5073164;28;20284;-84
2023/01/06 06:30:51;;;;;;;1.00;0.97;;;;;;;9.39;76.71;96155.59;5075576;28;20691;-84
2023/01/06 06:33:18;;;;;;;0.90;0.90;;;;;;;9.38;76.72;96164.28;5093888;28;20192;-85
2023/01/06 06:35:47;;;;;;;1.10;1.00;;;;;;;9.37;76.51;96151.56;5092069;28;20920;-85
2023/01/06 06:38:15;;;;;;;0.80;0.80;;;;;;;9.31;75.91;96145.28;5093404;28;20683;-85
2023/01/06 06:40:53;;;;;;;0.80;0.80;;;;;;;9.28;75.55;96145.59;5080123;28;20207;-85
2023/01/06 06:43:20;;;;;;;0.80;0.80;;;;;;;9.26;75.69;96150.88;5088165;28;20193;-85
2023/01/06 06:45:47;;;;;;;0.87;0.87;;;;;;;9.23;74.91;96147.84;5072486;28;20712;-84
2023/01/06 06:48:14;;;;;;;0.80;0.80;;;;;;;9.22;74.67;96144.47;5076403;28;20192;-84
2023/01/06 06:50:41;;;;;;;0.80;0.80;;;;;;;9.12;74.42;96137.81;5088904;28;20197;-85
2023/01/06 06:53:07;;;;;;;0.70;0.70;;;;;;;9.09;74.95;96140.69;5076336;28;20223;-85
2023/01/06 06:55:34;;;;;;;0.70;0.70;;;;;;;9.06;74.88;96139.22;5092547;28;20192;-85
2023/01/06 06:58:02;;;;;;;0.80;0.80;;;;;;;9.04;74.51;96133.47;5078881;28;20226;-85
2023/01/06 07:00:28;;;;;;;1.07;0.80;;;;;;;9.24;92.22;96139.94;5072304;28;20208;-81
2023/01/06 07:02:55;;;;;;;1.47;1.27;;;;;;;9.79;99.92;96142.06;5073550;28;20266;-81
2023/01/06 07:05:24;;;;;;;1.33;0.80;;;;;;;10.26;90.48;96134.59;5074595;28;20270;-82
2023/01/06 07:07:50;;;;;;;0.80;0.80;;;;;;;10.24;72.64;96136.50;5071013;28;20193;-84
2023/01/06 07:10:17;;;;;;;0.73;0.73;;;;;;;10.03;71.67;96134.38;5071398;28;20207;-85
2023/01/06 07:12:43;;;;;;;0.80;0.80;;;;;;;9.85;71.81;96131.13;5072280;28;20773;-84
2023/01/06 07:15:11;;;;;;;0.80;0.80;;;;;;;9.70;72.03;96135.28;5073261;28;20185;-85
2023/01/06 07:17:38;;;;;;;1.07;0.80;;;;;;;9.65;72.65;96140.88;5072914;28;20201;-84
2023/01/06 07:20:05;;;;;;;0.70;0.70;;;;;;;9.57;72.25;96129.81;5082376;28;20311;-84
2023/01/06 07:22:32;;;;;;;1.20;1.10;;;;;;;9.48;71.85;96135.88;5068851;28;20220;-84
2023/01/06 07:24:58;;;;;;;0.73;0.70;;;;;;;9.44;71.95;96135.38;5055915;28;20221;-84
2023/01/06 07:27:24;;;;;;;1.00;0.80;;;;;;;9.34;71.69;96134.69;5071980;28;20214;-84
2023/01/06 07:29:51;;;;;;;0.80;0.80;;;;;;;9.24;72.51;96144.28;5075742;28;20212;-84
2023/01/06 07:32:19;;;;;;;0.97;0.97;;;;;;;9.19;71.67;96142.19;5074807;28;20232;-84
2023/01/06 07:34:45;;;;;;;1.07;0.90;;;;;;;9.11;71.22;96131.06;5074765;28;20205;-84
2023/01/06 07:37:11;;;;;;;0.70;0.70;;;;;;;9.14;71.19;96139.28;5074412;28;20197;-84
2023/01/06 07:39:38;;;;;;;0.90;0.90;;;;;;;9.07;70.96;96130.56;5073497;28;20201;-84
2023/01/06 07:42:07;;;;;;;1.10;0.90;;;;;;;9.15;71.17;96134.94;5074024;28;20240;-84
2023/01/06 07:44:33;;;;;;;0.73;0.73;;;;;;;9.19;70.75;96131.13;5073970;28;20656;-84
2023/01/06 07:47:00;;;;;;;0.70;0.70;;;;;;;9.15;69.22;96128.03;5063291;28;20229;-84
2023/01/06 07:49:27;;;;;;;0.90;0.90;;;;;;;9.25;70.12;96117.63;5054131;28;20201;-84
2023/01/06 07:51:54;;;;;;;0.60;0.60;;;;;;;9.30;69.69;96117.97;5068959;28;20225;-84
2023/01/06 07:54:20;;;;;;;0.83;0.70;;;;;;;9.40;68.82;96116.09;5074709;28;20246;-84
2023/01/06 07:56:47;;;;;;;1.13;0.70;;;;;;;9.52;68.43;96114.03;5075527;28;20200;-84
2023/01/06 07:59:13;;;;;;;0.77;0.70;;;;;;;9.67;68.09;96117.59;5074865;28;20764;-84
2023/01/06 08:01:42;;;;;;;0.70;0.70;;;;;;;9.78;67.57;96119.09;5074235;28;20251;-84
2023/01/06 08:04:08;;;;;;;0.60;0.60;;;;;;;9.88;66.88;96120.53;5074552;28;20623;-84
2023/01/06 08:06:39;;;;;;;0.70;0.70;;;;;;;9.96;66.61;96120.56;5074288;28;20861;-84
2023/01/06 08:09:05;;;;;;;1.57;0.73;;;;;;;9.89;65.34;96122.16;5073684;28;20209;-84
2023/01/06 08:11:32;;;;;;;0.83;0.83;;;;;;;9.89;65.56;96123.91;5074675;28;20866;-84
2023/01/06 08:13:58;;;;;;;0.70;0.70;;;;;;;9.99;65.25;96132.28;5074761;28;20216;-84
2023/01/06 08:16:25;;;;;;;0.70;0.70;;;;;;;10.03;65.43;96131.00;5074655;28;20208;-84
2023/01/06 08:18:51;;;;;;;0.87;0.87;;;;;;;10.08;65.89;96138.25;5074429;28;20201;-84
2023/01/06 08:21:17;;;;;;;0.90;0.90;;;;;;;10.11;64.71;96132.78;5075790;28;20250;-84
2023/01/06 08:23:45;;;;;;;0.73;0.73;;;;;;;10.16;64.81;96136.50;5074010;28;20671;-84
2023/01/06 08:26:13;;;;;;;0.80;0.80;;;;;;;10.30;65.16;96137.63;5074359;28;20212;-84
2023/01/06 08:28:40;;;;;;;1.03;0.90;;;;;;;10.41;64.35;96126.19;5074051;28;20201;-84
2023/01/06 08:31:08;;;;;;;0.80;0.80;;;;;;;10.53;64.47;96128.31;5073943;28;20226;-84
2023/01/06 08:33:35;;;;;;;0.80;0.80;;;;;;;10.68;63.79;96121.53;5074340;28;20216;-84
2023/01/06 08:36:03;;;;;;;0.90;0.90;;;;;;;10.84;63.45;96119.88;5074495;28;20197;-84
2023/01/06 08:38:31;;;;;;;0.83;0.80;;;;;;;11.03;63.50;96116.91;5073150;28;20197;-84
2023/01/06 08:41:00;;;;;;;0.77;0.77;;;;;;;11.17;62.34;96113.66;5073175;28;20204;-86
2023/01/06 08:43:26;;;;;;;1.97;0.90;;;;;;;11.43;62.11;96121.13;5087407;28;20193;-85
2023/01/06 08:45:54;;;;;;;0.87;0.87;;;;;;;11.59;61.02;96115.06;5090853;28;20228;-84
2023/01/06 08:48:23;;;;;;;1.43;0.90;;;;;;;11.69;61.07;96113.91;5086193;28;20287;-84
2023/01/06 08:50:49;;;;;;;9.03;7.37;;;;;;;11.86;59.81;96124.16;5087430;28;20193;-84
2023/01/06 08:53:16;;;;;;;35.70;27.47;;;;;;;12.08;60.84;96120.78;5088458;28;20204;-84
2023/01/06 08:55:42;;;;;;;6.83;5.83;;;;;;;12.23;59.29;96118.25;5093660;28;20208;-84
2023/01/06 08:58:11;;;;;;;1.13;1.03;;;;;;;12.18;58.12;96116.16;5076630;28;20192;-85
2023/01/06 09:00:41;;;;;;;1.00;0.90;;;;;;;12.27;57.79;96124.66;5071280;28;20197;-85
2023/01/06 09:03:07;;;;;;;0.80;0.80;;;;;;;12.41;58.16;96122.13;5073210;28;20283;-85
2023/01/06 09:05:34;;;;;;;0.87;0.87;;;;;;;12.47;58.92;96130.16;5072523;28;20227;-85
2023/01/06 09:08:06;;;;;;;0.80;0.80;;;;;;;12.55;57.84;96130.06;5086887;28;20204;-85
2023/01/06 09:10:32;;;;;;;0.67;0.67;;;;;;;12.62;57.01;96131.78;5090999;28;20196;-85
2023/01/06 09:13:07;;;;;;;0.80;0.80;;;;;;;12.76;56.48;96135.38;5085772;28;20237;-84
2023/01/06 09:15:39;;;;;;;0.83;0.83;;;;;;;12.97;56.78;96134.69;5077170;28;20192;-85
2023/01/06 09:18:07;;;;;;;0.80;0.80;;;;;;;13.08;56.15;96131.66;5092316;28;20208;-86
2023/01/06 09:20:33;;;;;;;1.10;1.00;;;;;;;13.21;56.43;96134.44;5093444;28;20203;-85
2023/01/06 09:23:00;;;;;;;1.53;1.03;;;;;;;13.22;55.54;96130.09;5083752;28;20224;-85
2023/01/06 09:25:26;;;;;;;1.10;1.00;;;;;;;13.30;55.27;96141.13;5068431;28;20228;-86
2023/01/06 09:27:53;;;;;;;1.07;0.97;;;;;;;13.30;54.87;96142.91;5071929;28;20215;-85
2023/01/06 09:30:20;;;;;;;0.93;0.90;;;;;;;13.42;54.86;96147.47;5072515;28;20420;-85
2023/01/06 09:32:47;;;;;;;1.10;0.90;;;;;;;13.55;53.90;96154.56;5076699;28;20708;-85
2023/01/06 09:35:14;;;;;;;0.80;0.80;;;;;;;13.72;53.84;96168.09;5080662;28;20207;-85
2023/01/06 09:37:40;;;;;;;0.70;0.70;;;;;;;13.92;54.46;96171.72;5071284;28;20239;-85
2023/01/06 09:40:10;;;;;;;1.17;0.70;;;;;;;14.08;54.06;96168.09;5075848;28;20199;-86
2023/01/06 09:42:51;;;;;;;2.00;1.87;;;;;;;14.18;52.57;96176.38;5092383;28;20314;-85
2023/01/06 09:45:20;;;;;;;1.33;1.23;;;;;;;14.14;52.92;96162.19;5086070;28;20225;-85
2023/01/06 09:47:55;;;;;;;0.80;0.80;;;;;;;14.17;52.66;96169.59;5070918;28;20262;-86
2023/01/06 09:50:34;;;;;;;0.80;0.80;;;;;;;14.28;52.26;96169.09;5086949;28;20196;-86
2023/01/06 09:53:05;;;;;;;0.80;0.80;;;;;;;14.26;52.49;96176.25;5072950;28;20232;-85
2023/01/06 09:55:34;;;;;;;0.95;0.93;;;;;;;14.24;52.14;96180.03;5090616;28;20234;-86
2023/01/06 09:58:05;;;;;;;1.33;1.00;;;;;;;14.32;52.58;96177.31;5072219;28;20587;-86
2023/01/06 10:00:37;;;;;;;0.85;0.85;;;;;;;14.43;52.98;96182.03;5071555;28;20378;-86
2023/01/06 10:03:06;;;;;;;0.93;0.93;;;;;;;14.43;52.40;96182.03;5088137;28;20220;-86
2023/01/06 10:05:42;;;;;;;1.08;0.98;;;;;;;14.47;52.46;96178.06;5091732;28;20282;-86
2023/01/06 10:08:17;;;;;;;0.88;0.88;;;;;;;14.50;52.85;96172.53;5073953;28;20197;-85
2023/01/06 10:10:58;;;;;;;1.50;0.80;;;;;;;14.59;52.94;96175.81;5071755;28;20199;-85
2023/01/06 10:13:38;;;;;;;0.70;0.70;;;;;;;14.62;52.58;96178.03;5060594;28;20199;-85
2023/01/06 10:16:12;;;;;;;7.07;6.38;;;;;;;14.72;52.56;96165.53;5091861;28;20200;-85
2023/01/06 10:18:49;;;;;;;5.80;4.80;;;;;;;14.80;53.16;96157.63;5070639;28;20204;-85
2023/01/06 10:21:27;;;;;;;1.70;1.60;;;;;;;14.77;53.11;96164.00;5073695;28;20231;-85
2023/01/06 10:24:10;;;;;;;1.15;0.90;;;;;;;14.65;53.14;96155.09;5084205;28;20765;-85
2023/01/06 10:26:43;;;;;;;0.90;0.90;;;;;;;14.34;54.21;96155.41;5062336;28;20225;-85
2023/01/06 10:29:14;;;;;;;0.90;0.90;;;;;;;14.31;54.68;96150.59;5051571;28;20667;-85
2023/01/06 10:31:44;;;;;;;1.00;0.80;;;;;;;14.43;55.00;96146.53;5077553;28;20216;-85
2023/01/06 10:34:20;;;;;;;0.95;0.90;;;;;;;14.48;54.78;96138.22;5082714;28;20247;-85
2023/01/06 10:36:52;;;;;;;1.00;1.00;;;;;;;14.50;55.36;96147.41;5081311;28;20214;-85
2023/01/06 10:39:21;;;;;;;0.95;0.95;;;;;;;14.46;55.55;96153.94;5092887;28;20238;-86
2023/01/06 10:42:54;;;;;;;0.90;0.90;;;;;;;14.47;56.01;96139.19;5083834;28;20864;-85
2023/01/06 10:44:42;;;;;;;1.10;1.00;;;;;;;14.37;56.36;96143.88;5072411;28;20201;-85
2023/01/06 10:47:19;;;;;;;1.75;1.15;;;;;;;14.39;56.60;96139.31;5078939;28;20660;-85
2023/01/06 10:49:47;;;;;;;0.73;0.73;;;;;;;14.39;56.82;96141.91;5072548;28;20270;-85
2023/01/06 10:52:14;;;;;;;1.40;1.00;;;;;;;14.42;56.64;96146.75;5073634;28;20255;-84
2023/01/06 10:54:42;;;;;;;0.90;0.90;;;;;;;14.41;56.84;96148.53;5087209;28;20257;-84
2023/01/06 10:57:14;;;;;;;0.90;0.90;;;;;;;14.28;56.77;96152.75;5094293;28;20246;-84
2023/01/06 11:00:13;;;;;;;1.02;1.00;;;;;;;14.12;56.85;96146.84;5080897;28;20258;-84
2023/01/06 11:02:42;;;;;;;1.20;1.10;;;;;;;14.04;57.34;96143.59;5072803;28;20270;-84
2023/01/06 11:05:17;;;;;;;0.90;0.90;;;;;;;14.21;57.47;96142.34;5084921;28;20204;-85
2023/01/06 11:07:51;;;;;;;1.20;1.10;;;;;;;14.28;56.90;96138.00;5065289;28;20196;-84
2023/01/06 11:10:26;;;;;;;1.20;1.02;;;;;;;14.40;56.88;96146.09;5079158;28;20200;-84
2023/01/06 11:12:53;;;;;;;1.15;1.05;;;;;;;14.25;56.99;96146.16;5072915;28;20220;-85
2023/01/06 11:15:22;;;;;;;1.23;1.13;;;;;;;14.26;57.19;96152.94;5089800;28;20254;-85
2023/01/06 11:17:48;;;;;;;1.08;1.00;;;;;;;14.23;57.50;96139.56;5093175;28;20200;-85
2023/01/06 11:20:31;;;;;;;1.00;1.00;;;;;;;14.20;57.26;96143.34;5076147;28;20197;-84
2023/01/06 11:23:13;;;;;;;1.35;1.10;;;;;;;14.14;57.81;96144.88;5069309;28;20221;-85
2023/01/06 11:25:40;;;;;;;1.20;1.10;;;;;;;14.22;57.93;96145.75;5054234;28;20224;-85
2023/01/06 11:28:16;;;;;;;1.30;1.20;;;;;;;14.27;57.54;96146.78;5052849;28;20205;-84
2023/01/06 11:30:51;;;;;;;1.30;1.20;;;;;;;14.19;58.13;96152.09;5066548;28;20196;-85
2023/01/06 11:33:20;;;;;;;1.30;1.20;;;;;;;14.18;58.60;96145.31;5074057;28;20641;-85
2023/01/06 11:35:48;;;;;;;1.65;1.55;;;;;;;14.19;59.01;96139.13;5092557;28;20200;-84
2023/01/06 11:38:17;;;;;;;2.20;2.00;;;;;;;14.15;59.96;96138.69;5084811;28;20668;-85
2023/01/06 11:40:45;;;;;;;2.60;2.40;;;;;;;14.13;60.04;96145.06;5072784;28;20393;-84
2023/01/06 11:43:14;;;;;;;2.53;2.33;;;;;;;14.09;60.64;96147.19;5077831;28;20273;-84
2023/01/06 11:45:46;;;;;;;4.55;2.30;;;;;;;14.06;60.99;96134.63;5087464;28;20193;-84
2023/01/06 11:48:17;;;;;;;2.50;2.30;;;;;;;14.23;60.55;96135.19;5053916;28;20204;-84